Time;durP1;ratioP1;P1;durP2;ratioP2;P2;SDS_P1;SDS_P2;PMS_P1;PMS_P2;Temp;Humidity;BMP_temperature;BMP_pressure;BME280_temperature;BME280_humidity;BME280_pressure;Samples;Min_cycle;Max_cycle;Signal;HPM_P1;HPM_P2
2023/11/23 00:00:38;;;;;;;0.00;0.00;;;24.70;47.00;;;;;;5093093;28;20281;-55
2023/11/23 00:03:08;;;;;;;0.00;0.00;;;24.70;46.90;;;;;;5092538;28;20191;-55
2023/11/23 00:05:39;;;;;;;0.00;0.00;;;24.70;46.80;;;;;;5074547;28;20191;-53
2023/11/23 00:08:10;;;;;;;0.00;0.00;;;24.80;46.80;;;;;;5071891;28;20219;-55
2023/11/23 00:10:42;;;;;;;0.00;0.00;;;24.70;46.70;;;;;;5074226;28;20290;-55
2023/11/23 00:13:13;;;;;;;0.00;0.00;;;24.70;46.70;;;;;;5092368;28;20229;-53
2023/11/23 00:15:44;;;;;;;0.00;0.00;;;24.80;46.70;;;;;;5092386;28;20251;-55
2023/11/23 00:18:15;;;;;;;0.00;0.00;;;24.80;46.60;;;;;;5092461;28;20330;-54
2023/11/23 00:20:45;;;;;;;0.00;0.00;;;24.80;46.60;;;;;;5092026;28;20286;-56
2023/11/23 00:23:16;;;;;;;0.00;0.00;;;24.90;46.60;;;;;;5091662;28;20229;-56
2023/11/23 00:25:49;;;;;;;0.00;0.00;;;24.90;46.70;;;;;;5091677;28;20190;-54
2023/11/23 00:28:19;;;;;;;0.00;0.00;;;24.90;46.60;;;;;;5091747;28;20700;-54
2023/11/23 00:30:50;;;;;;;0.00;0.00;;;24.90;46.70;;;;;;5092165;28;20226;-52
2023/11/23 00:33:20;;;;;;;0.00;0.00;;;24.90;46.70;;;;;;5091851;28;20226;-55
2023/11/23 00:35:51;;;;;;;0.00;0.00;;;24.90;46.60;;;;;;5092428;28;20217;-55
2023/11/23 00:38:22;;;;;;;0.10;0.10;;;24.90;46.70;;;;;;5091560;28;20213;-54
2023/11/23 00:41:02;;;;;;;0.00;0.00;;;24.90;46.60;;;;;;5091622;28;20568;-54
2023/11/23 00:43:33;;;;;;;0.00;0.00;;;25.00;46.60;;;;;;5089551;28;20189;-55
2023/11/23 00:46:04;;;;;;;0.00;0.00;;;25.00;46.60;;;;;;5091512;28;20692;-53
2023/11/23 00:48:35;;;;;;;0.00;0.00;;;25.00;46.60;;;;;;5091516;28;20218;-54
2023/11/23 00:51:06;;;;;;;0.00;0.00;;;25.00;46.50;;;;;;5091657;28;20200;-56
2023/11/23 00:53:37;;;;;;;0.00;0.00;;;25.10;46.50;;;;;;5091840;28;20226;-54
2023/11/23 00:56:10;;;;;;;0.00;0.00;;;25.10;46.50;;;;;;5088448;28;20206;-55
2023/11/23 00:58:41;;;;;;;0.00;0.00;;;25.10;46.40;;;;;;5091065;28;20609;-54
2023/11/23 01:01:16;;;;;;;0.00;0.00;;;25.10;46.40;;;;;;5091601;28;20699;-53
2023/11/23 01:03:46;;;;;;;0.00;0.00;;;25.10;46.30;;;;;;5091211;28;20189;-54
2023/11/23 01:06:17;;;;;;;0.00;0.00;;;25.10;46.30;;;;;;5090946;28;20647;-55
2023/11/23 01:08:48;;;;;;;0.00;0.00;;;25.20;46.40;;;;;;5091395;28;20222;-55
2023/11/23 01:11:20;;;;;;;0.00;0.00;;;25.20;46.30;;;;;;5084345;28;20293;-56
2023/11/23 01:13:52;;;;;;;0.00;0.00;;;25.20;46.40;;;;;;5080191;28;20218;-55
2023/11/23 01:16:23;;;;;;;0.00;0.00;;;25.20;46.40;;;;;;5071212;28;20199;-55
2023/11/23 01:18:54;;;;;;;0.00;0.00;;;25.30;46.40;;;;;;5071330;28;20747;-55
2023/11/23 01:21:24;;;;;;;0.00;0.00;;;25.30;46.40;;;;;;5070936;28;20195;-56
2023/11/23 01:23:55;;;;;;;0.00;0.00;;;25.30;46.40;;;;;;5071021;28;20210;-50
2023/11/23 01:26:28;;;;;;;0.00;0.00;;;25.30;46.40;;;;;;5071135;28;20240;-54
2023/11/23 01:28:58;;;;;;;0.00;0.00;;;25.30;46.30;;;;;;5070847;28;20698;-56
2023/11/23 01:31:29;;;;;;;0.00;0.00;;;25.40;46.30;;;;;;5070656;28;20212;-57
2023/11/23 01:34:00;;;;;;;0.00;0.00;;;25.30;46.30;;;;;;5070671;28;20218;-54
2023/11/23 01:36:30;;;;;;;0.00;0.00;;;25.40;46.30;;;;;;5071212;28;20207;-53
2023/11/23 01:39:01;;;;;;;0.00;0.00;;;25.40;46.10;;;;;;5070833;28;20301;-55
2023/11/23 01:41:34;;;;;;;0.00;0.00;;;25.40;46.00;;;;;;5079983;28;20202;-55
2023/11/23 01:44:04;;;;;;;0.00;0.00;;;25.50;46.00;;;;;;5091140;28;20217;-56
2023/11/23 01:46:35;;;;;;;0.00;0.00;;;25.50;46.00;;;;;;5091487;28;20198;-53
2023/11/23 01:49:08;;;;;;;0.00;0.00;;;25.50;45.90;;;;;;5091155;28;20581;-57
2023/11/23 01:51:39;;;;;;;0.00;0.00;;;25.60;45.90;;;;;;5091002;28;20194;-54
2023/11/23 01:54:10;;;;;;;0.03;0.03;;;25.60;45.80;;;;;;5091510;28;20302;-50
2023/11/23 01:56:44;;;;;;;0.00;0.00;;;25.60;45.80;;;;;;5091019;28;20220;-51
2023/11/23 01:59:17;;;;;;;0.00;0.00;;;25.60;45.80;;;;;;5090831;28;20230;-54
2023/11/23 02:01:47;;;;;;;0.00;0.00;;;25.70;45.90;;;;;;5090933;28;20234;-52
2023/11/23 02:04:18;;;;;;;0.00;0.00;;;25.70;46.00;;;;;;5090530;28;20568;-48
2023/11/23 02:06:49;;;;;;;0.00;0.00;;;25.70;46.00;;;;;;5076192;28;20663;-50
2023/11/23 02:09:20;;;;;;;0.00;0.00;;;25.80;46.00;;;;;;5070949;28;20210;-55
2023/11/23 02:11:52;;;;;;;0.00;0.00;;;25.80;46.10;;;;;;5085659;28;20572;-55
2023/11/23 02:14:23;;;;;;;0.00;0.00;;;25.80;46.10;;;;;;5095056;28;20673;-50
2023/11/23 02:16:54;;;;;;;0.00;0.00;;;25.80;46.10;;;;;;5094748;28;20441;-56
2023/11/23 02:19:26;;;;;;;0.00;0.00;;;25.80;46.00;;;;;;5094960;28;20260;-49
2023/11/23 02:21:56;;;;;;;0.00;0.00;;;25.80;46.00;;;;;;5094591;28;20198;-55
2023/11/23 02:24:29;;;;;;;0.00;0.00;;;25.80;45.90;;;;;;5094650;28;20205;-51
2023/11/23 02:26:59;;;;;;;0.00;0.00;;;25.90;46.00;;;;;;5094679;28;20197;-56
2023/11/23 02:29:30;;;;;;;0.00;0.00;;;25.90;45.70;;;;;;5094426;28;20218;-51
2023/11/23 02:32:05;;;;;;;0.00;0.00;;;25.90;45.60;;;;;;5094026;28;20194;-55
2023/11/23 02:34:36;;;;;;;0.00;0.00;;;25.90;45.50;;;;;;5094838;28;20221;-51
2023/11/23 02:37:07;;;;;;;0.00;0.00;;;25.90;45.40;;;;;;5094658;28;20201;-55
2023/11/23 02:39:43;;;;;;;0.00;0.00;;;25.90;45.30;;;;;;5094048;28;20214;-56
2023/11/23 02:42:14;;;;;;;0.00;0.00;;;26.00;45.30;;;;;;5093421;28;20720;-53
2023/11/23 02:44:44;;;;;;;0.00;0.00;;;26.00;45.30;;;;;;5093888;28;20198;-56
2023/11/23 02:47:15;;;;;;;0.00;0.00;;;26.10;45.30;;;;;;5094310;28;20708;-56
2023/11/23 02:49:45;;;;;;;0.00;0.00;;;26.10;45.20;;;;;;5092467;28;20194;-50
2023/11/23 02:52:16;;;;;;;0.00;0.00;;;26.10;45.30;;;;;;5094127;28;20278;-55
2023/11/23 02:54:49;;;;;;;0.00;0.00;;;26.20;45.40;;;;;;5094119;28;20225;-56
2023/11/23 02:57:19;;;;;;;0.00;0.00;;;26.20;45.30;;;;;;5092275;28;20194;-54
2023/11/23 02:59:51;;;;;;;0.00;0.00;;;26.20;45.30;;;;;;5092942;28;20201;-50
2023/11/23 03:02:21;;;;;;;0.00;0.00;;;26.20;45.20;;;;;;5083386;28;20203;-53
2023/11/23 03:04:53;;;;;;;0.00;0.00;;;26.30;45.30;;;;;;5073414;28;20234;-57
2023/11/23 03:07:24;;;;;;;0.00;0.00;;;26.30;45.30;;;;;;5073285;28;20199;-54
2023/11/23 03:10:01;;;;;;;0.00;0.00;;;26.30;45.30;;;;;;5074748;28;20191;-50
2023/11/23 03:12:31;;;;;;;0.00;0.00;;;26.40;45.30;;;;;;5087026;28;20197;-55
2023/11/23 03:15:02;;;;;;;0.00;0.00;;;26.40;45.30;;;;;;5093553;28;20198;-55
2023/11/23 03:17:34;;;;;;;0.00;0.00;;;26.50;45.40;;;;;;5093191;28;20194;-52
2023/11/23 03:20:04;;;;;;;0.00;0.00;;;26.40;45.30;;;;;;5092989;28;20238;-54
2023/11/23 03:22:35;;;;;;;0.00;0.00;;;26.50;45.30;;;;;;5093459;28;20232;-50
2023/11/23 03:25:09;;;;;;;0.00;0.00;;;26.50;45.30;;;;;;5093574;28;20206;-55
2023/11/23 03:27:39;;;;;;;0.00;0.00;;;26.50;45.20;;;;;;5093398;28;20198;-57
2023/11/23 03:30:11;;;;;;;0.00;0.00;;;26.60;45.30;;;;;;5092862;28;20604;-48
2023/11/23 03:32:41;;;;;;;0.00;0.00;;;26.60;45.30;;;;;;5092929;28;20281;-51
2023/11/23 03:35:12;;;;;;;0.00;0.00;;;26.60;45.10;;;;;;5092859;28;20642;-52
2023/11/23 03:37:43;;;;;;;0.00;0.00;;;26.70;45.20;;;;;;5092357;28;20573;-53
2023/11/23 03:40:16;;;;;;;0.00;0.00;;;26.70;45.20;;;;;;5093009;28;20202;-49
2023/11/23 03:42:46;;;;;;;0.00;0.00;;;26.70;45.10;;;;;;5093179;28;20569;-58
2023/11/23 03:45:17;;;;;;;0.00;0.00;;;26.80;45.10;;;;;;5092841;28;20194;-52
2023/11/23 03:47:48;;;;;;;0.00;0.00;;;26.80;45.10;;;;;;5092698;28;20210;-49
2023/11/23 03:50:18;;;;;;;0.00;0.00;;;26.80;45.10;;;;;;5092688;28;20673;-44
2023/11/23 03:52:49;;;;;;;0.00;0.00;;;26.90;45.20;;;;;;5092726;28;20744;-53
2023/11/23 03:55:22;;;;;;;0.00;0.00;;;26.90;45.30;;;;;;5092673;28;20194;-55
2023/11/23 03:57:53;;;;;;;0.00;0.00;;;26.90;45.30;;;;;;5091299;28;20210;-52
2023/11/23 04:00:24;;;;;;;0.00;0.00;;;26.90;45.30;;;;;;5086420;28;20191;-50
2023/11/23 04:02:56;;;;;;;0.00;0.00;;;27.00;45.30;;;;;;5071556;28;20478;-50
2023/11/23 04:05:26;;;;;;;0.00;0.00;;;27.00;45.40;;;;;;5071921;28;20191;-52
2023/11/23 04:07:57;;;;;;;0.00;0.00;;;27.00;45.30;;;;;;5071890;28;20249;-55
2023/11/23 04:10:30;;;;;;;0.00;0.00;;;27.00;45.30;;;;;;5072354;28;20194;-51
2023/11/23 04:13:00;;;;;;;0.00;0.00;;;27.00;45.20;;;;;;5092120;28;20645;-44
2023/11/23 04:15:31;;;;;;;0.00;0.00;;;27.00;45.00;;;;;;5091834;28;20205;-55
2023/11/23 04:18:02;;;;;;;0.00;0.00;;;27.00;45.00;;;;;;5091556;28;20301;-53
2023/11/23 04:20:32;;;;;;;0.00;0.00;;;27.10;45.10;;;;;;5091889;28;20205;-52
2023/11/23 04:23:03;;;;;;;0.00;0.00;;;27.10;45.00;;;;;;5092115;28;20198;-52
2023/11/23 04:25:36;;;;;;;0.00;0.00;;;27.10;44.90;;;;;;5092343;28;20190;-55
2023/11/23 04:28:06;;;;;;;0.00;0.00;;;27.10;44.90;;;;;;5074434;28;20771;-50
2023/11/23 04:30:37;;;;;;;0.00;0.00;;;27.10;44.90;;;;;;5069449;28;20198;-42
2023/11/23 04:33:08;;;;;;;0.00;0.00;;;27.10;45.00;;;;;;5068818;28;20206;-51
2023/11/23 04:35:38;;;;;;;0.00;0.00;;;27.10;45.00;;;;;;5071288;28;20211;-55
2023/11/23 04:38:09;;;;;;;0.00;0.00;;;27.10;45.00;;;;;;5070841;28;20215;-53
2023/11/23 04:40:41;;;;;;;0.00;0.00;;;27.10;45.70;;;;;;5073151;28;20214;-55
2023/11/23 04:43:12;;;;;;;0.00;0.00;;;27.10;45.10;;;;;;5089872;28;20201;-52
2023/11/23 04:45:43;;;;;;;0.00;0.00;;;27.10;45.10;;;;;;5091710;28;20680;-55
2023/11/23 04:48:13;;;;;;;0.00;0.00;;;27.10;45.10;;;;;;5091697;28;20224;-55
2023/11/23 04:50:44;;;;;;;0.00;0.00;;;27.10;45.10;;;;;;5091180;28;20194;-56
2023/11/23 04:53:15;;;;;;;0.00;0.00;;;27.10;45.10;;;;;;5091021;28;20277;-55
2023/11/23 04:55:47;;;;;;;0.00;0.00;;;27.10;45.10;;;;;;5077005;28;20206;-56
2023/11/23 04:58:18;;;;;;;0.00;0.00;;;27.20;45.10;;;;;;5073369;28;20210;-54
2023/11/23 05:00:48;;;;;;;0.00;0.00;;;27.20;45.00;;;;;;5091694;28;20683;-52
2023/11/23 05:03:20;;;;;;;0.00;0.00;;;27.20;44.80;;;;;;5091391;28;20198;-54
2023/11/23 05:05:50;;;;;;;0.00;0.00;;;27.20;44.70;;;;;;5091361;28;20684;-55
2023/11/23 05:08:21;;;;;;;0.00;0.00;;;27.30;44.70;;;;;;5090399;28;20225;-51
2023/11/23 05:10:53;;;;;;;0.00;0.00;;;27.30;44.60;;;;;;5078370;28;20202;-56
2023/11/23 05:13:24;;;;;;;0.00;0.00;;;27.30;44.60;;;;;;5091478;28;20198;-53
2023/11/23 05:15:55;;;;;;;0.00;0.00;;;27.30;44.50;;;;;;5091521;28;20194;-55
2023/11/23 05:18:26;;;;;;;0.00;0.00;;;27.30;44.50;;;;;;5091308;28;20217;-55
2023/11/23 05:20:56;;;;;;;0.00;0.00;;;27.30;44.30;;;;;;5090871;28;20213;-55
2023/11/23 05:23:27;;;;;;;0.00;0.00;;;27.30;44.40;;;;;;5091035;28;20197;-53
2023/11/23 05:26:00;;;;;;;0.00;0.00;;;27.40;44.50;;;;;;5091623;28;20201;-55
2023/11/23 05:28:30;;;;;;;0.00;0.00;;;27.40;44.50;;;;;;5091303;28;20229;-54
2023/11/23 05:31:01;;;;;;;0.00;0.00;;;27.40;44.50;;;;;;5091505;28;20228;-56
2023/11/23 05:33:31;;;;;;;0.00;0.00;;;27.40;44.50;;;;;;5091422;28;20198;-55
2023/11/23 05:36:02;;;;;;;0.00;0.00;;;27.50;44.60;;;;;;5091584;28;20680;-53
2023/11/23 05:38:33;;;;;;;0.00;0.00;;;27.50;44.60;;;;;;5091504;28;20288;-54
2023/11/23 05:41:06;;;;;;;0.00;0.00;;;27.50;44.60;;;;;;5091274;28;20198;-52
2023/11/23 05:43:36;;;;;;;0.00;0.00;;;27.50;44.50;;;;;;5092674;28;20208;-54
2023/11/23 05:46:07;;;;;;;0.00;0.00;;;27.50;44.40;;;;;;5095305;28;20654;-54
2023/11/23 05:48:37;;;;;;;0.00;0.00;;;27.50;44.30;;;;;;5095371;28;20214;-55
2023/11/23 05:51:09;;;;;;;0.00;0.00;;;27.50;44.30;;;;;;5095100;28;20556;-51
2023/11/23 05:53:40;;;;;;;0.00;0.00;;;27.50;44.30;;;;;;5095032;28;20198;-55
2023/11/23 05:56:12;;;;;;;0.00;0.00;;;27.50;44.20;;;;;;5094364;28;20198;-56
2023/11/23 05:58:43;;;;;;;0.00;0.00;;;27.50;44.20;;;;;;5078216;28;20713;-53
2023/11/23 06:01:14;;;;;;;0.00;0.00;;;27.50;44.10;;;;;;5074887;28;20565;-55
2023/11/23 06:03:44;;;;;;;0.00;0.00;;;27.50;44.10;;;;;;5074872;28;20198;-55
2023/11/23 06:06:22;;;;;;;0.00;0.00;;;27.60;44.20;;;;;;5074456;28;20203;-55
2023/11/23 06:08:52;;;;;;;0.00;0.00;;;27.60;44.30;;;;;;5074326;28;20222;-56
2023/11/23 06:11:25;;;;;;;0.00;0.00;;;27.60;44.20;;;;;;5081575;28;20650;-55
2023/11/23 06:13:56;;;;;;;0.00;0.00;;;27.60;44.20;;;;;;5094543;28;20582;-54
2023/11/23 06:16:26;;;;;;;0.00;0.00;;;27.60;44.20;;;;;;5094749;28;20230;-54
2023/11/23 06:18:57;;;;;;;0.00;0.00;;;27.60;44.20;;;;;;5094863;28;20260;-54
2023/11/23 06:21:28;;;;;;;0.00;0.00;;;27.60;44.20;;;;;;5094133;28;20194;-49
2023/11/23 06:23:59;;;;;;;0.00;0.00;;;27.60;44.20;;;;;;5094131;28;20234;-56
2023/11/23 06:26:31;;;;;;;0.00;0.00;;;27.60;44.00;;;;;;5094463;28;20561;-48
2023/11/23 06:29:02;;;;;;;0.00;0.00;;;27.60;43.90;;;;;;5094155;28;20623;-56
2023/11/23 06:31:34;;;;;;;0.00;0.00;;;27.60;43.80;;;;;;5094581;28;20194;-56
2023/11/23 06:34:04;;;;;;;0.00;0.00;;;27.60;43.80;;;;;;5091891;28;20211;-54
2023/11/23 06:36:35;;;;;;;0.00;0.00;;;27.50;43.80;;;;;;5074239;28;20677;-54
2023/11/23 06:39:07;;;;;;;0.00;0.00;;;27.60;43.80;;;;;;5073813;28;20221;-56
2023/11/23 06:41:40;;;;;;;0.00;0.00;;;27.50;43.80;;;;;;5084115;28;20198;-55
2023/11/23 06:44:10;;;;;;;0.00;0.00;;;27.50;43.70;;;;;;5094360;28;20202;-50
2023/11/23 06:46:41;;;;;;;0.00;0.00;;;27.50;43.90;;;;;;5094379;28;20225;-52
2023/11/23 06:49:12;;;;;;;0.00;0.00;;;27.50;43.80;;;;;;5094211;28;20210;-55
2023/11/23 06:51:43;;;;;;;0.00;0.00;;;27.50;43.90;;;;;;5093609;28;20234;-55
2023/11/23 06:54:14;;;;;;;0.00;0.00;;;27.50;43.90;;;;;;5093629;28;20222;-55
2023/11/23 06:56:46;;;;;;;0.00;0.00;;;27.40;43.90;;;;;;5093078;28;20198;-56
2023/11/23 06:59:18;;;;;;;0.00;0.00;;;27.40;43.90;;;;;;5093544;28;20214;-55
2023/11/23 07:01:48;;;;;;;0.00;0.00;;;27.40;44.00;;;;;;5092004;28;20187;-55
2023/11/23 07:04:21;;;;;;;0.00;0.00;;;27.40;44.00;;;;;;5076313;28;20612;-56
2023/11/23 07:06:51;;;;;;;0.00;0.00;;;27.40;43.90;;;;;;5073403;28;20669;-56
2023/11/23 07:09:22;;;;;;;0.00;0.00;;;27.30;43.80;;;;;;5073462;28;20218;-56
2023/11/23 07:11:55;;;;;;;0.00;0.00;;;27.30;43.80;;;;;;5084977;28;20194;-56
2023/11/23 07:14:28;;;;;;;0.00;0.00;;;27.30;43.80;;;;;;5093261;28;20276;-55
2023/11/23 07:16:59;;;;;;;0.00;0.00;;;27.30;43.90;;;;;;5092601;28;20205;-56
2023/11/23 07:19:30;;;;;;;0.00;0.00;;;27.30;43.80;;;;;;5082294;28;20221;-57
2023/11/23 07:22:00;;;;;;;0.00;0.00;;;27.30;43.90;;;;;;5093392;28;20692;-55
2023/11/23 07:24:31;;;;;;;0.00;0.00;;;27.20;43.80;;;;;;5093236;28;20198;-53
2023/11/23 07:27:03;;;;;;;0.00;0.00;;;27.20;43.80;;;;;;5092587;28;20202;-55
2023/11/23 07:29:34;;;;;;;0.00;0.00;;;27.20;43.90;;;;;;5092859;28;20214;-56
2023/11/23 07:32:05;;;;;;;0.00;0.00;;;27.10;43.80;;;;;;5093011;28;20190;-55
2023/11/23 07:34:35;;;;;;;0.00;0.00;;;27.10;43.80;;;;;;5092982;28;20759;-55
2023/11/23 07:37:08;;;;;;;0.00;0.00;;;27.10;43.80;;;;;;5092662;28;20210;-54
2023/11/23 07:39:38;;;;;;;0.00;0.00;;;27.10;43.90;;;;;;5092697;28;20210;-55
2023/11/23 07:42:11;;;;;;;0.00;0.00;;;27.10;43.90;;;;;;5093128;28;20609;-52
2023/11/23 07:44:43;;;;;;;0.00;0.00;;;27.00;43.90;;;;;;5093213;28;20664;-55
2023/11/23 07:47:15;;;;;;;0.00;0.00;;;27.00;43.90;;;;;;5092971;28;20194;-49
2023/11/23 07:49:46;;;;;;;0.00;0.00;;;27.00;43.90;;;;;;5092920;28;20221;-55
2023/11/23 07:52:17;;;;;;;0.00;0.00;;;27.00;43.90;;;;;;5092814;28;20240;-49
2023/11/23 07:54:47;;;;;;;0.00;0.00;;;26.90;43.90;;;;;;5092623;28;20233;-56
2023/11/23 07:57:22;;;;;;;0.00;0.00;;;26.90;43.90;;;;;;5092913;28;20611;-49
2023/11/23 07:59:56;;;;;;;0.00;0.00;;;26.90;44.50;;;;;;5092752;28;20232;-55
2023/11/23 08:02:27;;;;;;;0.00;0.00;;;26.90;43.90;;;;;;5092199;28;20197;-55
2023/11/23 08:04:57;;;;;;;0.00;0.00;;;26.80;43.80;;;;;;5075335;28;20190;-51
2023/11/23 08:07:28;;;;;;;0.00;0.00;;;26.80;43.80;;;;;;5072024;28;20202;-54
2023/11/23 08:09:59;;;;;;;0.00;0.00;;;26.80;43.80;;;;;;5071929;28;20268;-48
2023/11/23 08:12:32;;;;;;;0.00;0.00;;;26.70;43.80;;;;;;5089370;28;20699;-49
2023/11/23 08:15:03;;;;;;;0.00;0.00;;;26.70;43.80;;;;;;5092333;28;20313;-50
2023/11/23 08:17:33;;;;;;;0.00;0.00;;;26.70;43.80;;;;;;5092376;28;20198;-50
2023/11/23 08:20:06;;;;;;;0.00;0.00;;;26.60;43.70;;;;;;5092493;28;20564;-45
2023/11/23 08:22:38;;;;;;;0.00;0.00;;;26.60;43.80;;;;;;5092042;28;20194;-52
2023/11/23 08:25:10;;;;;;;0.00;0.00;;;26.60;43.80;;;;;;5092339;28;20209;-51
2023/11/23 08:27:42;;;;;;;0.00;0.00;;;26.50;43.80;;;;;;5092047;28;20240;-49
2023/11/23 08:30:15;;;;;;;0.00;0.00;;;26.50;43.90;;;;;;5092128;28;20194;-56
2023/11/23 08:32:45;;;;;;;0.00;0.00;;;26.50;43.90;;;;;;5090505;28;20653;-57
2023/11/23 08:35:16;;;;;;;0.00;0.00;;;26.50;43.90;;;;;;5092148;28;20226;-56
2023/11/23 08:37:47;;;;;;;0.00;0.00;;;26.40;43.90;;;;;;5091379;28;20221;-52
2023/11/23 08:40:24;;;;;;;0.00;0.00;;;26.40;44.00;;;;;;5082814;28;20596;-48
2023/11/23 08:43:03;;;;;;;0.00;0.00;;;26.40;44.00;;;;;;5085549;28;20616;-55
2023/11/23 08:45:42;;;;;;;0.00;0.00;;;26.30;44.00;;;;;;5084071;28;20268;-53
2023/11/23 08:48:22;;;;;;;0.00;0.00;;;26.30;44.00;;;;;;5071807;28;20226;-55
2023/11/23 08:51:00;;;;;;;0.00;0.00;;;26.30;44.00;;;;;;5073388;28;20203;-46
2023/11/23 08:53:31;;;;;;;0.00;0.00;;;26.30;44.00;;;;;;5091397;28;20194;-54
2023/11/23 08:56:01;;;;;;;0.00;0.00;;;26.20;44.00;;;;;;5091029;28;20548;-51
2023/11/23 08:58:34;;;;;;;0.00;0.00;;;26.20;44.00;;;;;;5090786;28;20563;-55
2023/11/23 09:01:05;;;;;;;0.00;0.00;;;26.20;44.10;;;;;;5090779;28;20280;-50
2023/11/23 09:03:36;;;;;;;0.00;0.00;;;26.10;44.00;;;;;;5091419;28;20229;-55
2023/11/23 09:06:08;;;;;;;0.00;0.00;;;26.10;44.00;;;;;;5088799;28;20194;-55
2023/11/23 09:08:40;;;;;;;0.00;0.00;;;26.10;44.10;;;;;;5070991;28;20622;-52
2023/11/23 09:11:11;;;;;;;0.00;0.00;;;26.10;44.10;;;;;;5075385;28;20209;-48
2023/11/23 09:13:43;;;;;;;0.00;0.00;;;26.00;44.10;;;;;;5087601;28;20308;-51
2023/11/23 09:16:20;;;;;;;0.00;0.00;;;26.00;44.10;;;;;;5076315;28;20218;-53
2023/11/23 09:18:55;;;;;;;0.00;0.00;;;26.00;44.20;;;;;;5064315;28;20211;-54
2023/11/23 09:21:27;;;;;;;0.00;0.00;;;25.90;44.10;;;;;;5075726;28;20192;-55
2023/11/23 09:24:05;;;;;;;0.00;0.00;;;25.90;44.10;;;;;;5091513;28;20714;-54
2023/11/23 09:26:38;;;;;;;0.00;0.00;;;25.90;44.20;;;;;;5091289;28;20560;-54
2023/11/23 09:29:10;;;;;;;0.00;0.00;;;25.80;44.10;;;;;;5090709;28;20529;-55
2023/11/23 09:31:41;;;;;;;0.00;0.00;;;25.80;44.10;;;;;;5089972;28;20193;-54
2023/11/23 09:34:12;;;;;;;0.00;0.00;;;25.80;44.20;;;;;;5090258;28;20246;-45
2023/11/23 09:36:43;;;;;;;0.00;0.00;;;25.70;44.10;;;;;;5090967;28;20747;-51
2023/11/23 09:39:17;;;;;;;0.00;0.00;;;25.70;44.10;;;;;;5090900;28;20302;-54
2023/11/23 09:41:49;;;;;;;0.00;0.00;;;25.70;44.10;;;;;;5090710;28;20194;-53
2023/11/23 09:44:22;;;;;;;0.00;0.00;;;25.60;44.10;;;;;;5090771;28;20198;-54
2023/11/23 09:46:55;;;;;;;0.00;0.00;;;25.60;44.10;;;;;;5091282;28;20209;-54
2023/11/23 09:49:26;;;;;;;0.00;0.00;;;25.60;44.10;;;;;;5089095;28;20221;-51
2023/11/23 09:52:00;;;;;;;0.00;0.00;;;25.50;44.10;;;;;;5089726;28;20201;-51
2023/11/23 09:54:33;;;;;;;0.00;0.00;;;25.50;44.10;;;;;;5090703;28;20199;-54
2023/11/23 09:57:04;;;;;;;0.00;0.00;;;25.50;44.10;;;;;;5089867;28;20268;-53
2023/11/23 09:59:37;;;;;;;0.00;0.00;;;25.40;44.10;;;;;;5089760;28;20236;-52
2023/11/23 10:02:09;;;;;;;0.00;0.00;;;25.40;44.10;;;;;;5090453;28;20414;-49
2023/11/23 10:04:40;;;;;;;0.00;0.00;;;25.30;44.10;;;;;;5090471;28;20573;-53
2023/11/23 10:07:11;;;;;;;0.03;0.03;;;25.30;44.10;;;;;;5086567;28;20201;-52
2023/11/23 10:09:43;;;;;;;0.00;0.00;;;25.30;44.20;;;;;;5089512;28;20222;-48
2023/11/23 10:12:14;;;;;;;0.00;0.00;;;25.30;44.30;;;;;;5090543;28;20198;-53
2023/11/23 10:14:46;;;;;;;0.00;0.00;;;25.20;44.20;;;;;;5089588;28;20198;-55
2023/11/23 10:17:17;;;;;;;0.00;0.00;;;25.30;44.30;;;;;;5084831;28;20195;-50
2023/11/23 10:19:49;;;;;;;0.00;0.00;;;25.20;44.30;;;;;;5080973;28;20208;-53
2023/11/23 10:22:19;;;;;;;0.00;0.00;;;25.20;44.30;;;;;;5079661;28;20183;-54
2023/11/23 10:24:51;;;;;;;0.00;0.00;;;25.10;44.30;;;;;;5081762;28;20563;-51
2023/11/23 10:27:22;;;;;;;0.00;0.00;;;25.10;44.20;;;;;;5089895;28;20198;-54
2023/11/23 10:29:55;;;;;;;0.00;0.00;;;25.10;44.30;;;;;;5087638;28;20199;-53
2023/11/23 10:32:26;;;;;;;0.00;0.00;;;25.10;44.30;;;;;;5087418;28;20222;-53
2023/11/23 10:35:02;;;;;;;0.00;0.00;;;25.10;44.30;;;;;;5084191;28;20217;-52
2023/11/23 10:37:34;;;;;;;0.00;0.00;;;25.00;44.30;;;;;;5082519;28;20195;-49
2023/11/23 10:40:05;;;;;;;0.00;0.00;;;25.00;44.30;;;;;;5086283;28;20300;-53
2023/11/23 10:42:38;;;;;;;0.00;0.00;;;25.00;44.40;;;;;;5084227;28;20186;-49
2023/11/23 10:45:13;;;;;;;0.08;0.08;;;24.90;44.40;;;;;;5084030;28;20260;-54
2023/11/23 10:47:47;;;;;;;0.00;0.00;;;24.90;44.40;;;;;;5082767;28;20583;-45
2023/11/23 10:50:19;;;;;;;0.00;0.00;;;24.90;44.40;;;;;;5081728;28;20437;-53
2023/11/23 10:52:50;;;;;;;0.00;0.00;;;24.80;44.40;;;;;;5082969;28;20187;-53
2023/11/23 10:55:21;;;;;;;0.10;0.10;;;24.80;44.40;;;;;;5085330;28;20194;-54
2023/11/23 10:57:56;;;;;;;0.00;0.00;;;24.80;44.40;;;;;;5083236;28;20221;-54
2023/11/23 11:00:29;;;;;;;0.00;0.00;;;24.80;44.50;;;;;;5083911;28;20182;-55
2023/11/23 11:03:04;;;;;;;0.00;0.00;;;24.70;44.50;;;;;;5083712;28;20194;-52
2023/11/23 11:05:45;;;;;;;0.00;0.00;;;24.70;44.50;;;;;;5083918;28;20195;-54
2023/11/23 11:08:20;;;;;;;0.00;0.00;;;24.70;44.50;;;;;;5084884;28;20270;-51
2023/11/23 11:10:53;;;;;;;0.00;0.00;;;24.70;44.60;;;;;;5082803;28;20197;-53
2023/11/23 11:13:26;;;;;;;0.08;0.08;;;24.60;44.50;;;;;;5084476;28;20211;-55
2023/11/23 11:16:03;;;;;;;0.00;0.00;;;24.60;44.50;;;;;;5081370;28;20218;-53
2023/11/23 11:18:35;;;;;;;0.10;0.10;;;24.60;44.50;;;;;;5080302;28;20678;-51
2023/11/23 11:21:10;;;;;;;0.00;0.00;;;24.50;44.50;;;;;;5074642;28;20186;-54
2023/11/23 11:23:43;;;;;;;0.00;0.00;;;24.50;44.60;;;;;;5076136;28;20186;-53
2023/11/23 11:26:16;;;;;;;0.00;0.00;;;24.50;44.60;;;;;;5093345;28;20280;-52
2023/11/23 11:28:57;;;;;;;0.00;0.00;;;24.50;44.60;;;;;;5091982;28;20202;-53
2023/11/23 11:31:37;;;;;;;0.10;0.10;;;24.40;44.60;;;;;;5093355;28;20204;-50
2023/11/23 11:34:20;;;;;;;0.00;0.00;;;24.40;44.60;;;;;;5087211;28;20715;-54
2023/11/23 11:36:59;;;;;;;0.00;0.00;;;24.40;44.60;;;;;;5072333;28;20316;-54
2023/11/23 11:39:34;;;;;;;0.00;0.00;;;24.30;44.60;;;;;;5071926;28;20245;-55
2023/11/23 11:42:05;;;;;;;0.03;0.03;;;24.30;44.70;;;;;;5086328;28;20201;-52
2023/11/23 11:44:36;;;;;;;0.10;0.10;;;24.30;44.70;;;;;;5091931;28;20222;-51
2023/11/23 11:47:09;;;;;;;0.00;0.00;;;24.30;44.70;;;;;;5092116;28;20187;-54
2023/11/23 11:49:39;;;;;;;0.00;0.00;;;24.20;44.70;;;;;;5091620;28;20216;-54
2023/11/23 11:52:12;;;;;;;0.00;0.00;;;24.20;44.80;;;;;;5091459;28;20200;-51
2023/11/23 11:54:43;;;;;;;0.00;0.00;;;24.20;44.70;;;;;;5090629;28;20186;-53
2023/11/23 11:57:13;;;;;;;0.00;0.00;;;24.20;44.80;;;;;;5091946;28;20225;-53
2023/11/23 11:59:45;;;;;;;0.00;0.00;;;24.20;44.80;;;;;;5086041;28;20570;-53
2023/11/23 12:02:19;;;;;;;0.00;0.00;;;24.20;44.80;;;;;;5092499;28;20190;-53
2023/11/23 12:04:58;;;;;;;0.00;0.00;;;24.10;44.70;;;;;;5092813;28;20198;-54
2023/11/23 12:07:29;;;;;;;0.00;0.00;;;24.10;44.80;;;;;;5080597;28;20398;-54
2023/11/23 12:10:01;;;;;;;0.03;0.03;;;24.00;44.70;;;;;;5072140;28;20706;-49
2023/11/23 12:12:31;;;;;;;0.00;0.00;;;24.00;44.70;;;;;;5089502;28;20241;-54
2023/11/23 12:15:03;;;;;;;0.00;0.00;;;24.00;44.80;;;;;;5092335;28;20567;-50
2023/11/23 12:17:35;;;;;;;0.00;0.00;;;24.00;44.80;;;;;;5092583;28;20218;-50
2023/11/23 12:20:09;;;;;;;0.00;0.00;;;24.00;44.80;;;;;;5092217;28;20201;-55
2023/11/23 12:22:40;;;;;;;0.00;0.00;;;23.90;44.80;;;;;;5091672;28;20700;-53
2023/11/23 12:25:12;;;;;;;0.00;0.00;;;23.90;44.80;;;;;;5091935;28;20237;-48
2023/11/23 12:27:46;;;;;;;0.05;0.05;;;23.90;44.80;;;;;;5092026;28;20653;-49
2023/11/23 12:30:17;;;;;;;0.00;0.00;;;23.80;45.40;;;;;;5091994;28;20206;-49
2023/11/23 12:32:49;;;;;;;0.00;0.00;;;23.80;44.90;;;;;;5092202;28;20226;-48
2023/11/23 12:35:20;;;;;;;0.00;0.00;;;23.80;44.90;;;;;;5092313;28;20193;-53
2023/11/23 12:37:51;;;;;;;0.00;0.00;;;23.80;44.80;;;;;;5089847;28;20304;-50
2023/11/23 12:40:21;;;;;;;0.00;0.00;;;23.70;44.80;;;;;;5092122;28;20197;-52
2023/11/23 12:42:53;;;;;;;0.00;0.00;;;23.70;44.80;;;;;;5071665;28;20209;-54
2023/11/23 12:45:24;;;;;;;0.00;0.00;;;23.70;44.80;;;;;;5071672;28;20658;-50
2023/11/23 12:47:57;;;;;;;0.00;0.00;;;23.70;44.80;;;;;;5071438;28;20268;-54
2023/11/23 12:50:27;;;;;;;0.00;0.00;;;23.70;44.90;;;;;;5071692;28;20198;-48
2023/11/23 12:52:58;;;;;;;0.00;0.00;;;23.60;44.80;;;;;;5071006;28;20202;-55
2023/11/23 12:55:29;;;;;;;0.00;0.00;;;23.60;44.90;;;;;;5071622;28;20203;-55
2023/11/23 12:58:00;;;;;;;0.00;0.00;;;23.60;44.90;;;;;;5071440;28;20227;-57
2023/11/23 13:00:35;;;;;;;0.10;0.10;;;23.60;44.90;;;;;;5071282;28;20226;-48
2023/11/23 13:03:09;;;;;;;0.10;0.10;;;23.50;44.90;;;;;;5073544;28;20247;-46
2023/11/23 13:05:41;;;;;;;0.00;0.00;;;23.50;44.90;;;;;;5071657;28;20674;-50
2023/11/23 13:08:11;;;;;;;0.00;0.00;;;23.50;44.90;;;;;;5084114;28;20712;-51
2023/11/23 13:10:42;;;;;;;0.00;0.00;;;23.50;44.90;;;;;;5091340;28;20198;-51